This is the latest recevied weather packets stored in our database for station/object K4FDS. If no packets are shown the sender has not sent any weather packets the latest 10 day(s).
| Time | Temp. | Humidity | Pressure | Rain* | Wind** | Luminosity | Snow |
|---|---|---|---|---|---|---|---|
| 1778100568 | 22.78° C | 68% | 1004.4 hPa | 0 mm | 0.89 m/s, 227° | - | - |
| 1778098768 | 22.22° C | 71% | 1004.4 hPa | 0 mm | 0.45 m/s, 217° | - | - |
| 1778096968 | 21.67° C | 73% | 1005 hPa | 0 mm | 0 m/s | - | - |
| 1778095168 | 21.67° C | 72% | 1004.7 hPa | 0 mm | 0.89 m/s, 248° | - | - |
| 1778093368 | 20.56° C | 75% | 1005.1 hPa | 0 mm | 0.89 m/s, 261° | - | - |
| 1778091568 | 19.44° C | 80% | 1005.6 hPa | 0 mm | 0.45 m/s, 196° | - | - |
| 1778089768 | 18.89° C | 82% | 1005.9 hPa | 0 mm | 0 m/s | - | - |
| 1778087968 | 18.89° C | 78% | 1007.1 hPa | 0 mm | 0.89 m/s, 246° | - | - |
| 1778086168 | 18.89° C | 78% | 1007.1 hPa | 0 mm | 0.89 m/s, 246° | - | - |
| 1778084368 | 17.78° C | 81% | 1006.5 hPa | 0 mm | 0.45 m/s, 256° | - | - |
| 1778082568 | 17.78° C | 81% | 1006.5 hPa | 0 mm | 0.45 m/s, 256° | - | - |
| 1778080768 | 17.78° C | 81% | 1006.5 hPa | 0 mm | 0.45 m/s, 256° | - | - |
| 1778078968 | 16.67° C | 87% | 1007.1 hPa | 0.25 mm | 0 m/s | - | - |
| 1778077168 | 16.67° C | 87% | 1007.1 hPa | 0.25 mm | 0 m/s | - | - |
| 1778075368 | 16.67° C | 84% | 1006.7 hPa | 0 mm | 0 m/s | - | - |
| 1778073568 | 16.67° C | 84% | 1006.7 hPa | 0 mm | 0 m/s | - | - |
| 1778071768 | 16.11° C | 88% | 1006.4 hPa | 0 mm | 0 m/s | - | - |
| 1778069968 | 16.11° C | 74% | 1005.4 hPa | 0 mm | 0 m/s | - | - |
| 1778068168 | 16.11° C | 74% | 1005.4 hPa | 0 mm | 0 m/s | - | - |
| 1778066368 | 16.11° C | 74% | 1005.4 hPa | 0 mm | 0 m/s | - | - |
| 1778064568 | 16.11° C | 74% | 1005.4 hPa | 0 mm | 0 m/s | - | - |
| 1778062768 | 16.67° C | 66% | 1006.1 hPa | 0 mm | 0 m/s | - | - |
| 1778060967 | 16.67° C | 66% | 1006.1 hPa | 0 mm | 0 m/s | - | - |
| 1778059167 | 16.67° C | 66% | 1006.1 hPa | 0 mm | 0 m/s | - | - |
| 1778057367 | 16.67° C | 66% | 1006.1 hPa | 0 mm | 0 m/s | - | - |
* Rain latest hour (hover to see other rain measurements)
** Current wind speed in m/s (hover to see current wind gust speed)